Aviation Digital Data Service (ADDS)

Output produced by TAFs form (2343 UTC 18 July 2018)
found at http://www.aviationweather.gov/adds/tafs/
 
RJFO 182300Z 19003KT CAVOK 28/25 Q1011
TAF RJFO 182306Z 1900/2006 14003KT 9999 FEW030 
     BECMG 1901/1903 07005KT 
     BECMG 1905/1907 14003KT